createdAt,value
2022-10-19T00:01:41.278Z,22.88
2022-10-19T00:04:11.056Z,22.78
2022-10-19T00:06:40.544Z,23.01
2022-10-19T00:09:17.203Z,23.18
2022-10-19T00:11:49.657Z,23.26
2022-10-19T00:14:26.601Z,23.38
2022-10-19T00:16:56.653Z,23.30
2022-10-19T00:19:30.008Z,23.42
2022-10-19T00:21:59.152Z,23.66
2022-10-19T00:24:28.510Z,23.58
2022-10-19T00:26:58.091Z,23.79
2022-10-19T00:29:27.372Z,24.05
2022-10-19T00:31:56.554Z,24.24
2022-10-19T00:34:26.357Z,24.16
2022-10-19T00:36:55.436Z,24.45
2022-10-19T00:39:24.629Z,24.46
2022-10-19T00:41:54.005Z,24.53
2022-10-19T00:44:31.606Z,24.49
2022-10-19T00:47:07.648Z,24.59
2022-10-19T00:49:44.324Z,24.69
2022-10-19T00:52:22.404Z,24.80
2022-10-19T00:54:55.329Z,24.93
2022-10-19T00:57:28.411Z,25.09
2022-10-19T00:59:58.946Z,25.20
2022-10-19T01:02:28.827Z,25.42
2022-10-19T01:04:58.424Z,25.59
2022-10-19T01:07:28.933Z,25.58
2022-10-19T01:09:58.438Z,25.92
2022-10-19T01:12:55.705Z,26.14
2022-10-19T01:16:19.806Z,26.09
2022-10-19T01:20:00.181Z,26.34
2022-10-19T01:22:53.883Z,26.43
2022-10-19T01:25:47.470Z,26.51
2022-10-19T01:28:47.207Z,26.57
2022-10-19T01:31:30.504Z,26.77
2022-10-19T01:34:11.809Z,26.94
2022-10-19T01:36:45.933Z,27.20
2022-10-19T01:39:44.216Z,27.40
2022-10-19T01:42:28.071Z,27.65
2022-10-19T01:45:13.028Z,27.71
2022-10-19T01:48:16.608Z,27.65
2022-10-19T01:51:07.414Z,27.67
2022-10-19T01:53:48.026Z,27.71
2022-10-19T01:56:24.960Z,27.81
2022-10-19T01:59:00.108Z,27.95
2022-10-19T02:01:34.934Z,28.06
2022-10-19T02:04:07.257Z,28.28
2022-10-19T02:06:37.428Z,28.38
2022-10-19T02:09:07.004Z,28.47
2022-10-19T02:11:39.548Z,28.56
2022-10-19T02:14:16.568Z,28.62
2022-10-19T02:16:54.002Z,28.73
2022-10-19T02:21:54.854Z,29.11
2022-10-19T02:24:24.464Z,29.14
2022-10-19T02:26:55.262Z,29.16
2022-10-19T02:29:25.043Z,29.29
2022-10-19T02:31:54.763Z,29.41
2022-10-19T02:34:24.271Z,29.51
2022-10-19T02:36:53.706Z,29.66
2022-10-19T02:39:23.430Z,29.82
2022-10-19T02:42:16.909Z,29.93
2022-10-19T02:45:03.778Z,30.20
2022-10-19T02:47:51.573Z,30.54
2022-10-19T02:50:22.604Z,30.75
2022-10-19T02:52:52.003Z,30.93
2022-10-19T02:55:21.516Z,31.21
2022-10-19T02:57:50.980Z,31.35
2022-10-19T03:00:20.700Z,31.25
2022-10-19T03:02:49.973Z,31.17
2022-10-19T03:05:19.525Z,31.04
2022-10-19T03:07:48.711Z,31.30
2022-10-19T03:10:18.109Z,31.32
2022-10-19T03:12:47.424Z,31.35
2022-10-19T03:15:21.292Z,31.35
2022-10-19T03:17:54.905Z,31.31
2022-10-19T03:20:24.617Z,31.21
2022-10-19T03:25:27.717Z,31.43
2022-10-19T03:27:56.826Z,31.53
2022-10-19T03:30:26.169Z,31.81
2022-10-19T03:32:55.438Z,31.96
2022-10-19T03:35:24.736Z,32.04
2022-10-19T03:37:54.238Z,32.20
2022-10-19T03:40:23.440Z,32.25
2022-10-19T03:42:52.487Z,32.38
2022-10-19T03:45:22.119Z,32.70
2022-10-19T03:47:54.867Z,32.87
2022-10-19T03:50:24.023Z,33.22
2022-10-19T03:52:53.515Z,33.26
2022-10-19T03:55:23.211Z,33.29
2022-10-19T03:57:52.421Z,33.25
2022-10-19T04:00:21.972Z,33.40
2022-10-19T04:02:51.302Z,33.39
2022-10-19T04:05:20.707Z,33.43
2022-10-19T04:07:49.792Z,33.57
2022-10-19T04:10:18.822Z,33.90
2022-10-19T04:12:51.637Z,34.04
2022-10-19T04:15:23.016Z,34.00
2022-10-19T04:17:52.343Z,34.12
2022-10-19T04:20:22.235Z,34.29
2022-10-19T04:22:53.695Z,34.61
2022-10-19T04:25:23.588Z,34.86
2022-10-19T04:27:52.650Z,34.79
2022-10-19T04:30:21.784Z,35.02
2022-10-19T04:32:51.057Z,35.10
2022-10-19T04:35:20.274Z,35.29
2022-10-19T04:37:49.566Z,35.45
2022-10-19T04:40:21.566Z,35.51
2022-10-19T04:42:50.830Z,35.47
2022-10-19T04:45:20.022Z,35.59
2022-10-19T04:47:49.381Z,35.91
2022-10-19T04:50:18.989Z,36.11
2022-10-19T04:52:48.391Z,36.25
2022-10-19T04:55:18.136Z,36.50
2022-10-19T04:57:47.554Z,36.60
2022-10-19T05:00:17.684Z,36.90
2022-10-19T05:02:48.166Z,37.05
2022-10-19T05:05:18.235Z,37.10
2022-10-19T05:07:50.014Z,37.15
2022-10-19T05:10:19.397Z,37.25
2022-10-19T05:12:48.563Z,37.15
2022-10-19T05:15:17.913Z,37.17
2022-10-19T05:17:47.283Z,37.24
2022-10-19T05:20:16.541Z,37.30
2022-10-19T05:22:45.769Z,37.51
2022-10-19T05:25:15.495Z,37.58
2022-10-19T05:27:45.377Z,37.63
2022-10-19T05:30:15.596Z,38.01
2022-10-19T05:32:44.620Z,38.08
2022-10-19T05:35:15.484Z,38.13
2022-10-19T05:37:47.078Z,37.98
2022-10-19T05:40:16.563Z,38.08
2022-10-19T05:42:45.948Z,38.11
2022-10-19T05:45:15.141Z,38.21
2022-10-19T05:47:44.480Z,38.53
2022-10-19T05:50:14.483Z,38.80
2022-10-19T05:52:43.979Z,39.11
2022-10-19T05:55:13.246Z,39.30
2022-10-19T05:57:42.374Z,39.66
2022-10-19T06:00:13.252Z,39.86
2022-10-19T06:02:42.508Z,39.91
2022-10-19T06:05:11.717Z,40.25
2022-10-19T06:07:40.972Z,40.40
2022-10-19T06:10:11.421Z,40.42
2022-10-19T06:12:40.654Z,40.47
2022-10-19T06:15:10.732Z,40.79
2022-10-19T06:17:40.326Z,40.96
2022-10-19T06:20:10.393Z,41.45
2022-10-19T06:22:39.379Z,41.58
2022-10-19T06:25:09.486Z,41.86
2022-10-19T06:27:38.930Z,42.04
2022-10-19T06:30:09.192Z,42.08
2022-10-19T06:32:38.715Z,42.03
2022-10-19T06:35:09.570Z,42.22
2022-10-19T06:37:38.767Z,42.40
2022-10-19T06:40:08.697Z,42.40
2022-10-19T06:42:41.674Z,42.52
2022-10-19T06:45:13.093Z,42.43
2022-10-19T06:47:42.506Z,42.50
2022-10-19T06:50:12.248Z,42.56
2022-10-19T06:52:41.907Z,42.68
2022-10-19T06:55:12.271Z,42.91
2022-10-19T06:57:41.394Z,43.04
2022-10-19T07:00:11.429Z,43.17
2022-10-19T07:02:40.734Z,43.33
2022-10-19T07:05:11.215Z,43.55
2022-10-19T07:07:40.876Z,44.06
2022-10-19T07:10:10.451Z,44.42
2022-10-19T07:12:39.779Z,44.69
2022-10-19T07:15:10.042Z,44.68
2022-10-19T07:17:39.202Z,44.67
2022-10-19T07:20:08.983Z,44.75
2022-10-19T07:22:38.221Z,44.97
2022-10-19T07:25:08.106Z,45.23
2022-10-19T07:27:39.541Z,45.35
2022-10-19T07:30:12.905Z,45.45
2022-10-19T07:32:46.769Z,45.52
2022-10-19T07:35:17.345Z,45.83
2022-10-19T07:37:46.762Z,46.07
2022-10-19T07:40:16.275Z,46.22
2022-10-19T07:42:45.559Z,46.65
2022-10-19T07:45:15.072Z,46.44
2022-10-19T07:47:44.265Z,46.48
2022-10-19T07:50:13.587Z,46.42
2022-10-19T07:54:44.171Z,45.92
2022-10-19T07:57:14.125Z,45.80
2022-10-19T07:59:43.200Z,45.73
2022-10-19T08:02:21.158Z,45.71
2022-10-19T08:05:01.802Z,45.74
2022-10-19T08:07:35.019Z,45.79
2022-10-19T08:10:04.375Z,45.66
2022-10-19T08:12:33.619Z,45.72
2022-10-19T08:15:02.890Z,45.95
2022-10-19T08:17:31.878Z,45.91
2022-10-19T08:20:00.809Z,45.93
2022-10-19T08:22:29.850Z,46.15
2022-10-19T08:24:58.841Z,46.42
2022-10-19T08:27:28.041Z,46.75
2022-10-19T08:29:57.162Z,47.08
2022-10-19T08:32:26.318Z,47.51
2022-10-19T08:34:55.334Z,47.60
2022-10-19T08:37:40.061Z,47.80
2022-10-19T08:40:39.958Z,47.91
2022-10-19T08:43:38.223Z,48.13
2022-10-19T08:46:40.199Z,48.43
2022-10-19T08:49:21.824Z,48.56
2022-10-19T08:52:06.194Z,48.59
2022-10-19T08:55:02.168Z,48.79
2022-10-19T08:57:55.253Z,48.83
2022-10-19T09:00:42.590Z,48.91
2022-10-19T09:03:54.343Z,49.05
2022-10-19T09:06:51.034Z,49.09
2022-10-19T09:09:22.318Z,49.17
2022-10-19T09:11:59.708Z,49.31
2022-10-19T09:15:00.837Z,49.31
2022-10-19T09:17:32.441Z,49.39
2022-10-19T09:20:20.049Z,49.60
2022-10-19T09:23:04.145Z,49.75
2022-10-19T09:25:37.179Z,49.94
2022-10-19T09:28:47.090Z,49.73
2022-10-19T09:31:46.529Z,49.74
2022-10-19T09:34:47.940Z,49.95
2022-10-19T09:37:25.699Z,49.97
2022-10-19T09:39:56.390Z,50.07
2022-10-19T09:42:37.951Z,50.18
2022-10-19T09:45:31.721Z,50.10
2022-10-19T09:48:08.668Z,50.06
2022-10-19T09:50:45.948Z,50.09
2022-10-19T09:53:22.885Z,50.09
2022-10-19T09:56:10.766Z,50.09
2022-10-19T09:58:51.355Z,50.00
2022-10-19T10:01:44.083Z,50.11
2022-10-19T10:04:20.501Z,50.09
2022-10-19T10:06:51.227Z,50.15
2022-10-19T10:09:28.397Z,50.31
2022-10-19T10:12:03.960Z,50.38
2022-10-19T10:14:37.925Z,50.43
2022-10-19T10:17:24.759Z,50.55
2022-10-19T10:20:18.455Z,50.71
2022-10-19T10:23:03.810Z,50.86
2022-10-19T10:25:37.143Z,51.17
2022-10-19T10:28:25.581Z,51.20
2022-10-19T10:31:10.571Z,51.08
2022-10-19T10:33:44.754Z,50.94
2022-10-19T10:36:15.142Z,50.90
2022-10-19T10:38:51.347Z,50.86
2022-10-19T10:41:25.097Z,50.88
2022-10-19T10:44:19.998Z,50.96
2022-10-19T10:47:02.413Z,50.84
2022-10-19T10:49:39.208Z,50.74
2022-10-19T10:52:20.709Z,50.90
2022-10-19T10:55:12.534Z,50.88
2022-10-19T10:57:49.971Z,50.79
2022-10-19T11:00:25.254Z,50.73
2022-10-19T11:03:14.968Z,50.61
2022-10-19T11:06:00.263Z,50.66
2022-10-19T11:08:51.556Z,50.58
2022-10-19T11:11:43.585Z,50.42
2022-10-19T11:14:59.153Z,50.56
2022-10-19T11:17:34.494Z,50.89
2022-10-19T11:20:04.128Z,51.06
2022-10-19T11:23:08.652Z,51.39
2022-10-19T11:26:08.087Z,51.69
2022-10-19T11:29:15.807Z,51.96
2022-10-19T11:31:55.679Z,52.31
2022-10-19T11:34:47.649Z,52.52
2022-10-19T11:37:45.517Z,52.65
2022-10-19T11:44:24.072Z,52.51
2022-10-19T11:47:52.414Z,52.58
2022-10-19T11:50:58.860Z,52.73
2022-10-19T11:54:39.308Z,52.74
2022-10-19T11:57:53.031Z,52.82
2022-10-19T12:00:39.761Z,53.15
2022-10-19T12:03:34.518Z,53.40
2022-10-19T12:06:20.801Z,53.41
2022-10-19T12:09:32.620Z,53.54
2022-10-19T12:12:24.853Z,53.72
2022-10-19T12:15:08.035Z,53.82
2022-10-19T12:17:41.722Z,53.85
2022-10-19T12:20:22.880Z,53.82
2022-10-19T12:22:52.677Z,53.91
2022-10-19T12:25:23.354Z,53.94
2022-10-19T12:27:52.876Z,53.94
2022-10-19T12:30:25.828Z,54.00
2022-10-19T12:33:16.591Z,54.04
2022-10-19T12:36:09.114Z,54.02
2022-10-19T12:39:14.160Z,54.06
2022-10-19T12:42:01.156Z,54.09
2022-10-19T12:45:05.579Z,54.02
2022-10-19T12:47:34.982Z,53.99
2022-10-19T12:50:05.093Z,54.28
2022-10-19T12:52:50.362Z,54.00
2022-10-19T12:55:43.540Z,53.77
2022-10-19T12:58:25.751Z,53.80
2022-10-19T13:01:07.341Z,53.76
2022-10-19T13:03:42.270Z,54.04
2022-10-19T13:06:37.618Z,54.06
2022-10-19T13:09:24.581Z,54.16
2022-10-19T13:12:22.245Z,54.30
2022-10-19T13:15:06.176Z,54.43
2022-10-19T13:17:47.492Z,54.39
2022-10-19T13:20:16.631Z,54.55
2022-10-19T13:23:11.093Z,54.72
2022-10-19T13:25:41.764Z,54.89
2022-10-19T13:28:11.702Z,55.00
2022-10-19T13:30:40.656Z,55.16
2022-10-19T13:33:49.846Z,55.50
2022-10-19T13:36:20.402Z,55.57
2022-10-19T13:39:01.199Z,55.68
2022-10-19T13:41:49.235Z,55.81
2022-10-19T13:44:24.187Z,55.85
2022-10-19T13:47:22.882Z,55.79
2022-10-19T13:50:38.834Z,55.90
2022-10-19T13:53:49.272Z,55.96
2022-10-19T13:57:07.886Z,55.92
2022-10-19T13:59:59.508Z,55.77
2022-10-19T14:03:16.086Z,55.74
2022-10-19T14:06:15.189Z,55.46
2022-10-19T14:09:12.141Z,55.44
2022-10-19T14:11:51.422Z,55.42
2022-10-19T14:14:26.547Z,55.34
2022-10-19T14:17:04.903Z,55.37
2022-10-19T14:19:53.643Z,55.40
2022-10-19T14:22:41.721Z,55.42
2022-10-19T14:25:22.727Z,55.39
2022-10-19T14:28:02.757Z,55.56
2022-10-19T14:30:38.000Z,55.61
2022-10-19T14:33:15.931Z,55.62
2022-10-19T14:35:52.057Z,55.71
2022-10-19T14:38:39.651Z,55.84
2022-10-19T14:41:28.443Z,55.93
2022-10-19T14:43:59.559Z,55.96
2022-10-19T14:46:33.468Z,56.16
2022-10-19T14:49:07.534Z,56.09
2022-10-19T14:51:36.561Z,55.95
2022-10-19T14:54:32.349Z,55.71
2022-10-19T14:57:08.007Z,55.59
2022-10-19T15:00:18.737Z,55.69
2022-10-19T15:03:12.138Z,55.65
2022-10-19T15:05:50.086Z,55.73
2022-10-19T15:08:41.047Z,55.69
2022-10-19T15:11:34.496Z,55.77
2022-10-19T15:14:15.760Z,55.93
2022-10-19T15:16:51.460Z,55.97
2022-10-19T15:19:38.648Z,55.88
2022-10-19T15:22:10.778Z,55.85
2022-10-19T15:24:41.636Z,55.91
2022-10-19T15:27:22.617Z,55.79
2022-10-19T15:30:01.182Z,55.81
2022-10-19T15:32:38.982Z,55.74
2022-10-19T15:35:31.981Z,55.40
2022-10-19T15:38:16.212Z,55.07
2022-10-19T15:40:48.056Z,54.64
2022-10-19T15:43:45.465Z,54.59
2022-10-19T15:46:49.750Z,54.34
2022-10-19T15:49:18.650Z,54.03
2022-10-19T15:51:50.435Z,53.86
2022-10-19T15:54:20.916Z,53.74
2022-10-19T15:56:54.206Z,53.83
2022-10-19T15:59:24.873Z,53.72
2022-10-19T16:01:56.045Z,53.72
2022-10-19T16:04:25.620Z,53.48
2022-10-19T16:06:54.664Z,53.45
2022-10-19T16:09:24.260Z,53.33
2022-10-19T16:11:58.070Z,53.25
2022-10-19T16:14:33.070Z,53.08
2022-10-19T16:17:06.970Z,52.95
2022-10-19T16:19:36.298Z,52.95
2022-10-19T16:22:05.440Z,52.78
2022-10-19T16:24:34.658Z,52.79
2022-10-19T16:27:03.760Z,52.52
2022-10-19T16:29:33.189Z,52.30
2022-10-19T16:32:02.580Z,52.11
2022-10-19T16:34:31.822Z,51.95
2022-10-19T16:37:04.122Z,51.89
2022-10-19T16:39:35.974Z,51.73
2022-10-19T16:42:05.297Z,51.66
2022-10-19T16:44:34.655Z,51.75
2022-10-19T16:47:04.017Z,51.80
2022-10-19T16:49:33.927Z,51.37
2022-10-19T16:52:03.025Z,51.38
2022-10-19T16:54:33.799Z,51.17
2022-10-19T16:57:07.193Z,51.06
2022-10-19T16:59:38.738Z,51.09
2022-10-19T17:02:07.603Z,50.94
2022-10-19T17:04:36.833Z,50.92
2022-10-19T17:07:06.283Z,50.90
2022-10-19T17:09:43.332Z,50.92
2022-10-19T17:12:14.045Z,50.84
2022-10-19T17:14:44.426Z,50.42
2022-10-19T17:17:13.968Z,50.12
2022-10-19T17:19:43.370Z,50.31
2022-10-19T17:22:12.782Z,50.06
2022-10-19T17:24:42.763Z,49.91
2022-10-19T17:27:12.049Z,49.88
2022-10-19T17:29:41.140Z,49.54
2022-10-19T17:32:10.274Z,49.29
2022-10-19T17:34:39.363Z,48.96
2022-10-19T17:37:08.493Z,48.54
2022-10-19T17:39:37.974Z,48.28
2022-10-19T17:42:07.381Z,48.08
2022-10-19T17:44:36.548Z,47.91
2022-10-19T17:47:06.674Z,48.10
2022-10-19T17:49:35.723Z,47.43
2022-10-19T17:52:04.585Z,47.29
2022-10-19T17:54:43.517Z,47.17
2022-10-19T17:57:24.246Z,47.09
2022-10-19T17:59:55.991Z,46.86
2022-10-19T18:02:25.082Z,46.79
2022-10-19T18:04:54.145Z,46.50
2022-10-19T18:07:26.696Z,46.04
2022-10-19T18:09:55.733Z,45.92
2022-10-19T18:12:24.779Z,45.43
2022-10-19T18:14:53.711Z,45.03
2022-10-19T18:17:25.446Z,44.53
2022-10-19T18:19:57.020Z,43.33
2022-10-19T18:22:25.979Z,42.55
2022-10-19T18:24:55.018Z,42.31
2022-10-19T18:27:23.954Z,41.56
2022-10-19T18:29:53.155Z,41.19
2022-10-19T18:32:22.155Z,40.51
2022-10-19T18:34:51.569Z,40.03
2022-10-19T18:37:20.411Z,39.58
2022-10-19T18:39:49.432Z,39.37
2022-10-19T18:42:19.051Z,38.57
2022-10-19T18:44:48.554Z,38.50
2022-10-19T18:47:17.664Z,38.25
2022-10-19T18:49:46.737Z,38.26
2022-10-19T18:52:15.962Z,38.16
2022-10-19T18:54:45.176Z,37.43
2022-10-19T18:57:14.291Z,37.22
2022-10-19T18:59:43.383Z,36.97
2022-10-19T19:02:22.426Z,36.56
2022-10-19T19:04:57.496Z,36.38
2022-10-19T19:07:26.621Z,36.44
2022-10-19T19:09:56.333Z,36.34
2022-10-19T19:12:25.665Z,36.24
2022-10-19T19:14:57.218Z,35.87
2022-10-19T19:17:26.380Z,35.89
2022-10-19T19:19:55.797Z,35.95
2022-10-19T19:22:27.208Z,35.61
2022-10-19T19:24:56.521Z,35.48
2022-10-19T19:27:30.767Z,35.35
2022-10-19T19:30:01.855Z,35.07
2022-10-19T19:32:31.065Z,34.91
2022-10-19T19:35:00.208Z,34.52
2022-10-19T19:37:29.371Z,34.35
2022-10-19T19:39:58.416Z,34.24
2022-10-19T19:42:27.949Z,33.85
2022-10-19T19:44:57.055Z,33.60
2022-10-19T19:47:26.012Z,33.29
2022-10-19T19:49:57.706Z,33.03
2022-10-19T19:52:27.461Z,32.96
2022-10-19T19:54:56.490Z,33.00
2022-10-19T19:57:25.498Z,32.59
2022-10-19T19:59:54.629Z,32.48
2022-10-19T20:02:26.413Z,32.35
2022-10-19T20:04:57.885Z,32.21
2022-10-19T20:07:28.089Z,31.94
2022-10-19T20:09:58.862Z,31.79
2022-10-19T20:12:27.985Z,31.57
2022-10-19T20:14:57.079Z,31.35
2022-10-19T20:17:26.134Z,31.20
2022-10-19T20:19:55.184Z,30.99
2022-10-19T20:22:27.093Z,30.85
2022-10-19T20:24:56.001Z,30.55
2022-10-19T20:27:25.478Z,30.14
2022-10-19T20:29:59.422Z,29.61
2022-10-19T20:32:30.491Z,29.61
2022-10-19T20:34:59.939Z,29.56
2022-10-19T20:37:30.019Z,29.15
2022-10-19T20:39:59.410Z,29.31
2022-10-19T20:42:28.643Z,29.20
2022-10-19T20:44:57.698Z,29.18
2022-10-19T20:47:26.752Z,28.77
2022-10-19T20:49:58.748Z,28.52
2022-10-19T20:52:28.983Z,28.56
2022-10-19T20:54:58.148Z,28.42
2022-10-19T20:57:27.473Z,27.77
2022-10-19T20:59:56.466Z,27.76
2022-10-19T21:02:25.599Z,27.43
2022-10-19T21:04:54.662Z,27.42
2022-10-19T21:07:23.823Z,27.19
2022-10-19T21:09:52.736Z,26.88
2022-10-19T21:12:21.972Z,26.64
2022-10-19T21:14:51.362Z,26.42
2022-10-19T21:17:20.613Z,26.31
2022-10-19T21:19:49.728Z,26.07
2022-10-19T21:22:18.730Z,25.77
2022-10-19T21:24:47.707Z,25.72
2022-10-19T21:27:16.865Z,25.47
2022-10-19T21:29:45.855Z,25.57
2022-10-19T21:32:14.924Z,25.47
2022-10-19T21:34:43.913Z,25.26
2022-10-19T21:37:13.065Z,25.13
2022-10-19T21:39:42.292Z,24.78
2022-10-19T21:42:11.556Z,24.85
2022-10-19T21:44:40.731Z,24.87
2022-10-19T21:47:09.801Z,24.68
2022-10-19T21:49:38.922Z,24.65
2022-10-19T21:52:08.506Z,24.76
2022-10-19T21:54:39.572Z,24.57
2022-10-19T21:57:08.684Z,24.47
2022-10-19T21:59:37.995Z,24.32
2022-10-19T22:02:07.184Z,24.20
2022-10-19T22:04:36.499Z,24.20
2022-10-19T22:07:06.241Z,24.13
2022-10-19T22:09:35.407Z,23.99
2022-10-19T22:12:04.592Z,23.82
2022-10-19T22:14:33.810Z,23.47
2022-10-19T22:17:03.042Z,23.49
2022-10-19T22:19:32.161Z,23.46
2022-10-19T22:22:01.278Z,23.45
2022-10-19T22:24:30.462Z,23.56
2022-10-19T22:26:59.518Z,23.39
2022-10-19T22:29:28.542Z,23.47
2022-10-19T22:31:57.522Z,23.42
2022-10-19T22:34:26.825Z,23.91
2022-10-19T22:36:55.760Z,23.58
2022-10-19T22:39:27.012Z,23.60
2022-10-19T22:43:10.870Z,23.57
2022-10-19T22:46:53.623Z,23.46
2022-10-19T22:50:36.557Z,23.15
2022-10-19T22:53:06.419Z,22.93
2022-10-19T22:55:35.383Z,22.66
2022-10-19T22:58:05.790Z,22.47
2022-10-19T23:00:34.928Z,22.58
2022-10-19T23:03:03.705Z,22.26
2022-10-19T23:05:32.642Z,22.05
2022-10-19T23:08:01.731Z,22.06
2022-10-19T23:10:30.659Z,21.93
2022-10-19T23:12:59.821Z,22.26
2022-10-19T23:15:29.411Z,22.60
2022-10-19T23:17:59.733Z,22.26
2022-10-19T23:20:28.781Z,22.58
2022-10-19T23:22:57.999Z,22.94
2022-10-19T23:25:27.254Z,23.06
2022-10-19T23:27:56.179Z,23.27
2022-10-19T23:30:25.073Z,23.20
2022-10-19T23:32:54.059Z,23.25
2022-10-19T23:35:22.992Z,23.22
2022-10-19T23:37:52.336Z,22.91
2022-10-19T23:40:21.669Z,23.19
2022-10-19T23:42:50.695Z,23.31
2022-10-19T23:45:20.336Z,22.75
2022-10-19T23:47:49.488Z,22.67
2022-10-19T23:50:18.502Z,22.90
2022-10-19T23:55:16.726Z,23.27
2022-10-19T23:57:45.802Z,23.50
